Buchanan, MI

7:18 PM EDT on July 29, 2015 (GMT -0400)
Life Action Camp | | Change Station
CLOSE
Current Station
Personal Weather Station
Location: Buchanan, MI
Elevation: 755 ft
Nearby Weather Stations

Elev 755 ft 41.83 °N, 86.42 °W | Updated 11 seconds ago

Clear
Clear
81.7 °F
Feels Like 82 °F
N
2.2
Wind Variable Wind from NW
Gusts 4.5 mph

Today
High -- | Low -- °F
--% Chance of Precip.
Yesterday
High -- | Low -- °F
Precip. -- in
6:36 AM 9:07 PM
Waxing Gibbous, 97% visible
Pressure 29.95 in
Visibility 10.0 miles
Clouds Clear
Heat Index 82 °F
Dew Point 61 °F
Humidity 49%
Rainfall 0.00 in
Snow Depth Not available.
UV 2 out of 12
Pollen 4.80 out of 12
Air Quality Not available.
Flu Activity Not available.
METAR KSBN 292254Z 30006KT 10SM CLR 28/15 A2997 RMK AO2 SLP141 T02830150

More Conditions Fewer Conditions

Pressure 29.95 in
Visibility 10.0 miles
Clouds Clear
Heat Index 82 °F
Dew Point 61 °F
Humidity 49%
Rainfall 0.00 in
Snow Depth Not available.
UV 2 out of 12
Pollen 4.80 out of 12
Air Quality Not available.
Flu Activity Not available.
METAR KSBN 292254Z 30006KT 10SM CLR 28/15 A2997 RMK AO2 SLP141 T02830150

More Conditions Fewer Conditions

10-Day Weather Forecast

×

Almanac

Astronomy

Jul. 29, 2015 Rise Set
Actual Time
Civil Twilight
Nautical Twilight
Astronomical Twilight
Moon
Length of Visible Light
Length of Day
Tomorrow will be .
, % of the Moon is Illuminated

Today's Extremes

State Highs State Lows

Community

WunderPhotos

Upload Photos

1,842,182 photos uploaded!

WunderBlogs® & News

Nearby

Air Quality

  Air Quality AQ Index Pollutant
Not available.

Snow Depth

Station Depth Elevation

Earthquake Activity

City Distance Mag. Time & Date
Minimum magnitude displayed is 2.5.

Coastal Water Temperatures

Place Temperature

Stations

Nearby Weather Stations

Station Location Temp. Windchill Dew Point Humidity Wind Precip. Elev Updated Type